sensor_id;sensor_type;location;lat;lon;timestamp;P1;durP1;ratioP1;P2;durP2;ratioP2
17614;SDS011;8926;49.720;6.576;2022-10-31T00:00:24;4.90;;;4.50;;
17614;SDS011;8926;49.720;6.576;2022-10-31T00:02:49;4.30;;;4.00;;
17614;SDS011;8926;49.720;6.576;2022-10-31T00:05:15;4.87;;;4.47;;
17614;SDS011;8926;49.720;6.576;2022-10-31T00:07:40;5.27;;;4.90;;
17614;SDS011;8926;49.720;6.576;2022-10-31T00:10:05;4.50;;;4.10;;
17614;SDS011;8926;49.720;6.576;2022-10-31T00:12:31;4.33;;;3.93;;
17614;SDS011;8926;49.720;6.576;2022-10-31T00:14:57;4.50;;;4.10;;
17614;SDS011;8926;49.720;6.576;2022-10-31T00:17:22;4.80;;;4.43;;
17614;SDS011;8926;49.720;6.576;2022-10-31T00:19:47;4.37;;;4.07;;
17614;SDS011;8926;49.720;6.576;2022-10-31T00:22:13;4.43;;;4.10;;
17614;SDS011;8926;49.720;6.576;2022-10-31T00:24:38;4.43;;;4.03;;
17614;SDS011;8926;49.720;6.576;2022-10-31T00:27:03;4.20;;;3.90;;
17614;SDS011;8926;49.720;6.576;2022-10-31T00:29:28;4.87;;;3.90;;
17614;SDS011;8926;49.720;6.576;2022-10-31T00:31:54;3.40;;;3.10;;
17614;SDS011;8926;49.720;6.576;2022-10-31T00:34:19;3.77;;;3.43;;
17614;SDS011;8926;49.720;6.576;2022-10-31T00:36:44;3.47;;;3.17;;
17614;SDS011;8926;49.720;6.576;2022-10-31T00:39:09;4.20;;;3.80;;
17614;SDS011;8926;49.720;6.576;2022-10-31T00:41:35;3.87;;;3.43;;
17614;SDS011;8926;49.720;6.576;2022-10-31T00:44:00;3.70;;;3.40;;
17614;SDS011;8926;49.720;6.576;2022-10-31T00:46:25;5.17;;;3.63;;
17614;SDS011;8926;49.720;6.576;2022-10-31T00:48:51;3.40;;;2.87;;
17614;SDS011;8926;49.720;6.576;2022-10-31T00:51:16;3.97;;;3.03;;
17614;SDS011;8926;49.720;6.576;2022-10-31T00:53:41;3.40;;;3.13;;
17614;SDS011;8926;49.720;6.576;2022-10-31T00:56:07;3.27;;;3.07;;
17614;SDS011;8926;49.720;6.576;2022-10-31T00:58:32;3.73;;;3.37;;
17614;SDS011;8926;49.720;6.576;2022-10-31T01:00:57;3.90;;;3.60;;
17614;SDS011;8926;49.720;6.576;2022-10-31T01:03:24;3.07;;;2.87;;
17614;SDS011;8926;49.720;6.576;2022-10-31T01:05:58;4.77;;;3.10;;
17614;SDS011;8926;49.720;6.576;2022-10-31T01:08:28;4.23;;;3.90;;
17614;SDS011;8926;49.720;6.576;2022-10-31T01:11:12;3.43;;;3.23;;
17614;SDS011;8926;49.720;6.576;2022-10-31T01:13:43;5.30;;;4.80;;
17614;SDS011;8926;49.720;6.576;2022-10-31T01:16:10;5.63;;;4.80;;
17614;SDS011;8926;49.720;6.576;2022-10-31T01:18:37;4.37;;;4.07;;
17614;SDS011;8926;49.720;6.576;2022-10-31T01:23:30;4.87;;;4.37;;
17614;SDS011;8926;49.720;6.576;2022-10-31T01:26:00;4.50;;;4.13;;
17614;SDS011;8926;49.720;6.576;2022-10-31T01:28:27;3.83;;;3.63;;
17614;SDS011;8926;49.720;6.576;2022-10-31T01:30:53;4.53;;;3.87;;
17614;SDS011;8926;49.720;6.576;2022-10-31T01:33:18;5.00;;;4.60;;
17614;SDS011;8926;49.720;6.576;2022-10-31T01:35:43;5.00;;;4.60;;
17614;SDS011;8926;49.720;6.576;2022-10-31T01:38:09;4.60;;;4.20;;
17614;SDS011;8926;49.720;6.576;2022-10-31T01:40:34;4.50;;;4.10;;
17614;SDS011;8926;49.720;6.576;2022-10-31T01:42:59;4.30;;;3.93;;
17614;SDS011;8926;49.720;6.576;2022-10-31T01:45:24;4.20;;;3.90;;
17614;SDS011;8926;49.720;6.576;2022-10-31T01:47:50;4.13;;;3.80;;
17614;SDS011;8926;49.720;6.576;2022-10-31T01:53:12;3.93;;;3.63;;
17614;SDS011;8926;49.720;6.576;2022-10-31T01:55:41;4.17;;;3.87;;
17614;SDS011;8926;49.720;6.576;2022-10-31T01:58:11;4.90;;;4.47;;
17614;SDS011;8926;49.720;6.576;2022-10-31T02:00:39;4.07;;;3.77;;
17614;SDS011;8926;49.720;6.576;2022-10-31T02:03:10;4.10;;;3.80;;
17614;SDS011;8926;49.720;6.576;2022-10-31T02:05:36;4.53;;;4.20;;
17614;SDS011;8926;49.720;6.576;2022-10-31T02:08:06;4.50;;;4.10;;
17614;SDS011;8926;49.720;6.576;2022-10-31T02:10:38;4.53;;;4.17;;
17614;SDS011;8926;49.720;6.576;2022-10-31T02:13:05;4.30;;;3.90;;
17614;SDS011;8926;49.720;6.576;2022-10-31T02:15:33;4.00;;;3.70;;
17614;SDS011;8926;49.720;6.576;2022-10-31T02:17:59;4.77;;;3.40;;
17614;SDS011;8926;49.720;6.576;2022-10-31T02:20:25;3.93;;;3.63;;
17614;SDS011;8926;49.720;6.576;2022-10-31T02:28:51;5.30;;;4.80;;
17614;SDS011;8926;49.720;6.576;2022-10-31T02:31:37;4.10;;;3.80;;
17614;SDS011;8926;49.720;6.576;2022-10-31T02:36:42;4.97;;;4.57;;
17614;SDS011;8926;49.720;6.576;2022-10-31T02:39:18;4.00;;;3.60;;
17614;SDS011;8926;49.720;6.576;2022-10-31T02:41:52;3.83;;;3.53;;
17614;SDS011;8926;49.720;6.576;2022-10-31T02:44:39;4.67;;;4.27;;
17614;SDS011;8926;49.720;6.576;2022-10-31T02:47:16;4.20;;;3.90;;
17614;SDS011;8926;49.720;6.576;2022-10-31T02:49:51;3.90;;;3.57;;
17614;SDS011;8926;49.720;6.576;2022-10-31T02:52:29;4.70;;;4.30;;
17614;SDS011;8926;49.720;6.576;2022-10-31T02:54:56;3.60;;;3.30;;
17614;SDS011;8926;49.720;6.576;2022-10-31T02:57:23;4.17;;;3.77;;
17614;SDS011;8926;49.720;6.576;2022-10-31T02:59:53;4.33;;;3.93;;
17614;SDS011;8926;49.720;6.576;2022-10-31T03:13:41;3.63;;;3.20;;
17614;SDS011;8926;49.720;6.576;2022-10-31T03:16:20;3.77;;;3.40;;
17614;SDS011;8926;49.720;6.576;2022-10-31T03:19:02;3.30;;;3.10;;
17614;SDS011;8926;49.720;6.576;2022-10-31T03:24:20;4.20;;;3.90;;
17614;SDS011;8926;49.720;6.576;2022-10-31T03:26:49;3.90;;;3.60;;
17614;SDS011;8926;49.720;6.576;2022-10-31T03:29:22;3.83;;;3.50;;
17614;SDS011;8926;49.720;6.576;2022-10-31T03:31:52;3.40;;;3.20;;
17614;SDS011;8926;49.720;6.576;2022-10-31T03:34:22;3.03;;;2.83;;
17614;SDS011;8926;49.720;6.576;2022-10-31T03:36:52;4.50;;;4.17;;
17614;SDS011;8926;49.720;6.576;2022-10-31T03:39:20;3.90;;;3.60;;
17614;SDS011;8926;49.720;6.576;2022-10-31T03:41:54;3.80;;;3.50;;
17614;SDS011;8926;49.720;6.576;2022-10-31T03:44:27;3.60;;;3.30;;
17614;SDS011;8926;49.720;6.576;2022-10-31T03:46:55;3.47;;;3.20;;
17614;SDS011;8926;49.720;6.576;2022-10-31T03:49:21;3.73;;;3.53;;
17614;SDS011;8926;49.720;6.576;2022-10-31T03:51:54;4.20;;;3.90;;
17614;SDS011;8926;49.720;6.576;2022-10-31T03:54:30;4.20;;;3.90;;
17614;SDS011;8926;49.720;6.576;2022-10-31T03:57:10;4.33;;;3.97;;
17614;SDS011;8926;49.720;6.576;2022-10-31T04:00:06;3.70;;;3.40;;
17614;SDS011;8926;49.720;6.576;2022-10-31T04:02:38;4.00;;;3.50;;
17614;SDS011;8926;49.720;6.576;2022-10-31T04:05:08;3.83;;;3.43;;
17614;SDS011;8926;49.720;6.576;2022-10-31T04:07:37;3.60;;;3.30;;
17614;SDS011;8926;49.720;6.576;2022-10-31T04:10:07;3.50;;;3.30;;
17614;SDS011;8926;49.720;6.576;2022-10-31T04:12:34;3.80;;;3.50;;
17614;SDS011;8926;49.720;6.576;2022-10-31T04:15:03;3.30;;;3.03;;
17614;SDS011;8926;49.720;6.576;2022-10-31T04:17:31;3.93;;;3.30;;
17614;SDS011;8926;49.720;6.576;2022-10-31T04:20:00;3.20;;;2.90;;
17614;SDS011;8926;49.720;6.576;2022-10-31T04:22:26;3.43;;;3.23;;
17614;SDS011;8926;49.720;6.576;2022-10-31T04:24:51;3.47;;;3.27;;
17614;SDS011;8926;49.720;6.576;2022-10-31T04:27:16;3.57;;;3.27;;
17614;SDS011;8926;49.720;6.576;2022-10-31T04:29:42;3.20;;;3.00;;
17614;SDS011;8926;49.720;6.576;2022-10-31T04:32:07;3.20;;;3.00;;
17614;SDS011;8926;49.720;6.576;2022-10-31T04:34:32;3.60;;;3.30;;
17614;SDS011;8926;49.720;6.576;2022-10-31T04:36:58;3.20;;;3.00;;
17614;SDS011;8926;49.720;6.576;2022-10-31T04:39:23;3.50;;;3.17;;
17614;SDS011;8926;49.720;6.576;2022-10-31T04:41:48;2.70;;;2.50;;
17614;SDS011;8926;49.720;6.576;2022-10-31T04:44:13;3.60;;;3.30;;
17614;SDS011;8926;49.720;6.576;2022-10-31T04:46:39;3.40;;;3.20;;
17614;SDS011;8926;49.720;6.576;2022-10-31T04:49:04;4.03;;;3.73;;
17614;SDS011;8926;49.720;6.576;2022-10-31T04:51:29;4.13;;;3.73;;
17614;SDS011;8926;49.720;6.576;2022-10-31T04:53:54;3.80;;;3.50;;
17614;SDS011;8926;49.720;6.576;2022-10-31T04:56:20;3.67;;;3.37;;
17614;SDS011;8926;49.720;6.576;2022-10-31T04:58:45;3.90;;;3.60;;
17614;SDS011;8926;49.720;6.576;2022-10-31T05:01:10;4.07;;;3.77;;
17614;SDS011;8926;49.720;6.576;2022-10-31T05:03:36;3.70;;;3.50;;
17614;SDS011;8926;49.720;6.576;2022-10-31T05:06:01;4.00;;;3.70;;
17614;SDS011;8926;49.720;6.576;2022-10-31T05:08:26;3.47;;;3.17;;
17614;SDS011;8926;49.720;6.576;2022-10-31T05:10:51;4.60;;;4.20;;
17614;SDS011;8926;49.720;6.576;2022-10-31T05:13:17;5.53;;;4.53;;
17614;SDS011;8926;49.720;6.576;2022-10-31T05:15:42;6.07;;;4.70;;
17614;SDS011;8926;49.720;6.576;2022-10-31T05:18:07;6.90;;;5.03;;
17614;SDS011;8926;49.720;6.576;2022-10-31T05:20:33;5.17;;;4.30;;
17614;SDS011;8926;49.720;6.576;2022-10-31T05:22:58;3.70;;;3.40;;
17614;SDS011;8926;49.720;6.576;2022-10-31T05:25:25;3.83;;;3.53;;
17614;SDS011;8926;49.720;6.576;2022-10-31T05:27:53;3.70;;;3.40;;
17614;SDS011;8926;49.720;6.576;2022-10-31T05:30:21;3.87;;;3.47;;
17614;SDS011;8926;49.720;6.576;2022-10-31T05:32:49;3.60;;;3.30;;
17614;SDS011;8926;49.720;6.576;2022-10-31T05:35:19;2.93;;;2.73;;
17614;SDS011;8926;49.720;6.576;2022-10-31T05:37:46;4.17;;;3.83;;
17614;SDS011;8926;49.720;6.576;2022-10-31T05:40:13;4.03;;;3.63;;
17614;SDS011;8926;49.720;6.576;2022-10-31T05:42:39;4.00;;;3.70;;
17614;SDS011;8926;49.720;6.576;2022-10-31T05:45:06;3.60;;;3.30;;
17614;SDS011;8926;49.720;6.576;2022-10-31T05:47:33;5.17;;;4.63;;
17614;SDS011;8926;49.720;6.576;2022-10-31T05:49:58;4.77;;;3.83;;
17614;SDS011;8926;49.720;6.576;2022-10-31T05:52:24;4.10;;;3.80;;
17614;SDS011;8926;49.720;6.576;2022-10-31T05:54:49;4.80;;;4.40;;
17614;SDS011;8926;49.720;6.576;2022-10-31T05:57:14;4.57;;;4.27;;
17614;SDS011;8926;49.720;6.576;2022-10-31T05:59:40;4.30;;;4.00;;
17614;SDS011;8926;49.720;6.576;2022-10-31T06:02:05;4.80;;;4.40;;
17614;SDS011;8926;49.720;6.576;2022-10-31T06:04:30;4.47;;;3.93;;
17614;SDS011;8926;49.720;6.576;2022-10-31T06:06:56;4.43;;;4.03;;
17614;SDS011;8926;49.720;6.576;2022-10-31T06:09:21;4.33;;;3.93;;
17614;SDS011;8926;49.720;6.576;2022-10-31T06:11:47;4.10;;;3.80;;
17614;SDS011;8926;49.720;6.576;2022-10-31T06:14:12;4.30;;;4.00;;
17614;SDS011;8926;49.720;6.576;2022-10-31T06:16:37;4.10;;;3.80;;
17614;SDS011;8926;49.720;6.576;2022-10-31T06:19:02;4.23;;;3.93;;
17614;SDS011;8926;49.720;6.576;2022-10-31T06:21:28;4.53;;;4.10;;
17614;SDS011;8926;49.720;6.576;2022-10-31T06:23:53;4.53;;;3.73;;
17614;SDS011;8926;49.720;6.576;2022-10-31T06:26:18;3.77;;;3.47;;
17614;SDS011;8926;49.720;6.576;2022-10-31T06:28:43;4.97;;;4.57;;
17614;SDS011;8926;49.720;6.576;2022-10-31T06:31:09;4.50;;;4.13;;
17614;SDS011;8926;49.720;6.576;2022-10-31T06:33:34;5.27;;;4.77;;
17614;SDS011;8926;49.720;6.576;2022-10-31T06:35:59;5.47;;;4.90;;
17614;SDS011;8926;49.720;6.576;2022-10-31T06:38:25;4.90;;;4.40;;
17614;SDS011;8926;49.720;6.576;2022-10-31T06:40:51;4.87;;;4.47;;
17614;SDS011;8926;49.720;6.576;2022-10-31T06:43:17;4.33;;;4.03;;
17614;SDS011;8926;49.720;6.576;2022-10-31T06:45:42;5.77;;;5.17;;
17614;SDS011;8926;49.720;6.576;2022-10-31T06:48:08;9.13;;;8.53;;
17614;SDS011;8926;49.720;6.576;2022-10-31T06:50:33;10.70;;;9.70;;
17614;SDS011;8926;49.720;6.576;2022-10-31T06:52:58;8.40;;;7.80;;
17614;SDS011;8926;49.720;6.576;2022-10-31T06:55:24;9.23;;;8.40;;
17614;SDS011;8926;49.720;6.576;2022-10-31T06:57:55;10.90;;;9.90;;
17614;SDS011;8926;49.720;6.576;2022-10-31T07:00:22;11.57;;;10.67;;
17614;SDS011;8926;49.720;6.576;2022-10-31T07:02:58;9.20;;;8.57;;
17614;SDS011;8926;49.720;6.576;2022-10-31T07:05:24;8.13;;;7.43;;
17614;SDS011;8926;49.720;6.576;2022-10-31T07:07:54;8.30;;;7.60;;
17614;SDS011;8926;49.720;6.576;2022-10-31T07:10:21;6.23;;;5.73;;
17614;SDS011;8926;49.720;6.576;2022-10-31T07:12:48;8.97;;;8.27;;
17614;SDS011;8926;49.720;6.576;2022-10-31T07:15:13;10.83;;;9.83;;
17614;SDS011;8926;49.720;6.576;2022-10-31T07:17:38;15.33;;;14.07;;
17614;SDS011;8926;49.720;6.576;2022-10-31T07:20:03;11.50;;;10.50;;
17614;SDS011;8926;49.720;6.576;2022-10-31T07:22:36;9.70;;;9.00;;
17614;SDS011;8926;49.720;6.576;2022-10-31T07:25:02;10.07;;;9.37;;
17614;SDS011;8926;49.720;6.576;2022-10-31T07:27:28;10.40;;;9.70;;
17614;SDS011;8926;49.720;6.576;2022-10-31T07:29:53;7.60;;;7.10;;
17614;SDS011;8926;49.720;6.576;2022-10-31T07:32:18;6.50;;;6.07;;
17614;SDS011;8926;49.720;6.576;2022-10-31T07:34:44;6.20;;;5.70;;
17614;SDS011;8926;49.720;6.576;2022-10-31T07:37:09;5.80;;;5.40;;
17614;SDS011;8926;49.720;6.576;2022-10-31T07:39:34;5.60;;;5.20;;
17614;SDS011;8926;49.720;6.576;2022-10-31T07:41:59;4.67;;;4.37;;
17614;SDS011;8926;49.720;6.576;2022-10-31T07:44:25;6.27;;;5.77;;
17614;SDS011;8926;49.720;6.576;2022-10-31T07:46:50;4.80;;;4.40;;
17614;SDS011;8926;49.720;6.576;2022-10-31T07:49:15;4.60;;;4.30;;
17614;SDS011;8926;49.720;6.576;2022-10-31T07:51:41;5.70;;;5.20;;
17614;SDS011;8926;49.720;6.576;2022-10-31T07:54:06;6.30;;;5.80;;
17614;SDS011;8926;49.720;6.576;2022-10-31T07:56:31;7.13;;;6.50;;
17614;SDS011;8926;49.720;6.576;2022-10-31T07:58:56;6.40;;;5.80;;
17614;SDS011;8926;49.720;6.576;2022-10-31T08:01:22;5.03;;;4.73;;
17614;SDS011;8926;49.720;6.576;2022-10-31T08:03:47;5.00;;;4.60;;
17614;SDS011;8926;49.720;6.576;2022-10-31T08:06:12;4.83;;;4.40;;
17614;SDS011;8926;49.720;6.576;2022-10-31T08:08:37;4.60;;;4.20;;
17614;SDS011;8926;49.720;6.576;2022-10-31T08:11:03;4.83;;;4.43;;
17614;SDS011;8926;49.720;6.576;2022-10-31T08:13:28;5.03;;;4.63;;
17614;SDS011;8926;49.720;6.576;2022-10-31T08:15:53;5.23;;;4.83;;
17614;SDS011;8926;49.720;6.576;2022-10-31T08:18:19;4.40;;;4.10;;
17614;SDS011;8926;49.720;6.576;2022-10-31T08:20:46;4.97;;;4.40;;
17614;SDS011;8926;49.720;6.576;2022-10-31T08:23:12;5.43;;;5.03;;
17614;SDS011;8926;49.720;6.576;2022-10-31T08:25:37;5.60;;;5.10;;
17614;SDS011;8926;49.720;6.576;2022-10-31T08:28:03;5.00;;;4.60;;
17614;SDS011;8926;49.720;6.576;2022-10-31T08:30:30;5.10;;;4.70;;
17614;SDS011;8926;49.720;6.576;2022-10-31T08:35:34;4.40;;;4.10;;
17614;SDS011;8926;49.720;6.576;2022-10-31T08:37:59;4.43;;;4.13;;
17614;SDS011;8926;49.720;6.576;2022-10-31T08:40:25;4.77;;;4.47;;
17614;SDS011;8926;49.720;6.576;2022-10-31T08:43:34;4.03;;;3.73;;
17614;SDS011;8926;49.720;6.576;2022-10-31T08:45:42;4.40;;;4.10;;
17614;SDS011;8926;49.720;6.576;2022-10-31T08:48:09;4.73;;;4.43;;
17614;SDS011;8926;49.720;6.576;2022-10-31T08:50:37;3.80;;;3.60;;
17614;SDS011;8926;49.720;6.576;2022-10-31T08:53:03;4.33;;;4.03;;
17614;SDS011;8926;49.720;6.576;2022-10-31T08:55:32;3.73;;;3.53;;
17614;SDS011;8926;49.720;6.576;2022-10-31T08:58:03;4.20;;;3.90;;
17614;SDS011;8926;49.720;6.576;2022-10-31T09:00:29;5.00;;;4.60;;
17614;SDS011;8926;49.720;6.576;2022-10-31T09:03:00;5.27;;;4.87;;
17614;SDS011;8926;49.720;6.576;2022-10-31T09:05:35;4.50;;;4.20;;
17614;SDS011;8926;49.720;6.576;2022-10-31T09:08:00;4.23;;;3.93;;
17614;SDS011;8926;49.720;6.576;2022-10-31T09:10:27;4.47;;;4.17;;
17614;SDS011;8926;49.720;6.576;2022-10-31T09:13:03;5.07;;;4.50;;
17614;SDS011;8926;49.720;6.576;2022-10-31T09:15:37;6.40;;;5.90;;
17614;SDS011;8926;49.720;6.576;2022-10-31T09:18:04;5.23;;;4.80;;
17614;SDS011;8926;49.720;6.576;2022-10-31T09:20:30;6.57;;;5.93;;
17614;SDS011;8926;49.720;6.576;2022-10-31T09:22:57;5.33;;;4.90;;
17614;SDS011;8926;49.720;6.576;2022-10-31T09:25:24;4.97;;;4.60;;
17614;SDS011;8926;49.720;6.576;2022-10-31T09:27:50;5.33;;;4.77;;
17614;SDS011;8926;49.720;6.576;2022-10-31T09:30:15;4.17;;;3.87;;
17614;SDS011;8926;49.720;6.576;2022-10-31T09:32:40;4.73;;;4.40;;
17614;SDS011;8926;49.720;6.576;2022-10-31T09:35:06;5.53;;;3.90;;
17614;SDS011;8926;49.720;6.576;2022-10-31T09:37:31;4.80;;;4.20;;
17614;SDS011;8926;49.720;6.576;2022-10-31T09:39:57;4.10;;;3.80;;
17614;SDS011;8926;49.720;6.576;2022-10-31T09:42:27;3.53;;;3.30;;
17614;SDS011;8926;49.720;6.576;2022-10-31T09:45:03;3.90;;;3.60;;
17614;SDS011;8926;49.720;6.576;2022-10-31T09:47:43;4.27;;;3.97;;
17614;SDS011;8926;49.720;6.576;2022-10-31T09:50:18;4.37;;;3.97;;
17614;SDS011;8926;49.720;6.576;2022-10-31T09:52:53;4.57;;;4.27;;
17614;SDS011;8926;49.720;6.576;2022-10-31T09:55:27;4.87;;;4.43;;
17614;SDS011;8926;49.720;6.576;2022-10-31T09:58:00;5.73;;;4.23;;
17614;SDS011;8926;49.720;6.576;2022-10-31T10:00:26;5.10;;;4.70;;
17614;SDS011;8926;49.720;6.576;2022-10-31T10:03:01;5.93;;;3.90;;
17614;SDS011;8926;49.720;6.576;2022-10-31T10:05:40;4.27;;;3.93;;
17614;SDS011;8926;49.720;6.576;2022-10-31T10:08:30;4.37;;;3.97;;
17614;SDS011;8926;49.720;6.576;2022-10-31T10:14:12;3.83;;;3.53;;
17614;SDS011;8926;49.720;6.576;2022-10-31T10:17:04;3.43;;;3.23;;
17614;SDS011;8926;49.720;6.576;2022-10-31T10:19:57;3.03;;;2.83;;
17614;SDS011;8926;49.720;6.576;2022-10-31T10:22:48;4.13;;;3.80;;
17614;SDS011;8926;49.720;6.576;2022-10-31T10:25:19;3.70;;;3.40;;
17614;SDS011;8926;49.720;6.576;2022-10-31T10:28:03;3.27;;;2.97;;
17614;SDS011;8926;49.720;6.576;2022-10-31T10:30:37;3.50;;;3.20;;
17614;SDS011;8926;49.720;6.576;2022-10-31T10:36:02;3.60;;;3.40;;
17614;SDS011;8926;49.720;6.576;2022-10-31T10:41:41;4.90;;;4.27;;
17614;SDS011;8926;49.720;6.576;2022-10-31T10:44:11;3.80;;;3.50;;
17614;SDS011;8926;49.720;6.576;2022-10-31T10:46:40;4.40;;;4.10;;
17614;SDS011;8926;49.720;6.576;2022-10-31T11:00:24;3.00;;;2.80;;
17614;SDS011;8926;49.720;6.576;2022-10-31T11:02:52;3.00;;;2.80;;
17614;SDS011;8926;49.720;6.576;2022-10-31T11:05:33;3.43;;;3.23;;
17614;SDS011;8926;49.720;6.576;2022-10-31T11:08:06;3.40;;;3.10;;
17614;SDS011;8926;49.720;6.576;2022-10-31T11:10:32;3.23;;;3.03;;
17614;SDS011;8926;49.720;6.576;2022-10-31T11:13:00;3.20;;;3.00;;
17614;SDS011;8926;49.720;6.576;2022-10-31T11:15:28;3.00;;;2.80;;
17614;SDS011;8926;49.720;6.576;2022-10-31T11:17:58;3.40;;;3.10;;
17614;SDS011;8926;49.720;6.576;2022-10-31T11:20:32;3.30;;;3.03;;
17614;SDS011;8926;49.720;6.576;2022-10-31T11:23:01;3.63;;;3.37;;
17614;SDS011;8926;49.720;6.576;2022-10-31T11:25:47;3.90;;;3.60;;
17614;SDS011;8926;49.720;6.576;2022-10-31T11:28:14;5.33;;;3.90;;
17614;SDS011;8926;49.720;6.576;2022-10-31T11:30:44;3.90;;;3.60;;
17614;SDS011;8926;49.720;6.576;2022-10-31T11:33:16;3.93;;;3.53;;
17614;SDS011;8926;49.720;6.576;2022-10-31T11:36:16;3.40;;;3.20;;
17614;SDS011;8926;49.720;6.576;2022-10-31T11:38:46;4.87;;;3.77;;
17614;SDS011;8926;49.720;6.576;2022-10-31T11:41:17;3.90;;;3.60;;
17614;SDS011;8926;49.720;6.576;2022-10-31T11:43:49;3.90;;;3.47;;
17614;SDS011;8926;49.720;6.576;2022-10-31T11:49:03;3.90;;;3.60;;
17614;SDS011;8926;49.720;6.576;2022-10-31T11:51:31;3.77;;;3.17;;
17614;SDS011;8926;49.720;6.576;2022-10-31T11:53:59;3.37;;;3.07;;
17614;SDS011;8926;49.720;6.576;2022-10-31T11:56:27;3.50;;;3.20;;
17614;SDS011;8926;49.720;6.576;2022-10-31T11:59:03;4.40;;;2.90;;
17614;SDS011;8926;49.720;6.576;2022-10-31T12:01:32;2.90;;;2.70;;
17614;SDS011;8926;49.720;6.576;2022-10-31T12:04:04;3.47;;;3.17;;
17614;SDS011;8926;49.720;6.576;2022-10-31T12:06:33;3.10;;;2.90;;
17614;SDS011;8926;49.720;6.576;2022-10-31T12:09:01;3.07;;;2.87;;
17614;SDS011;8926;49.720;6.576;2022-10-31T12:27:20;2.90;;;2.70;;
17614;SDS011;8926;49.720;6.576;2022-10-31T12:35:17;2.53;;;2.43;;
17614;SDS011;8926;49.720;6.576;2022-10-31T12:37:53;2.90;;;2.70;;
17614;SDS011;8926;49.720;6.576;2022-10-31T12:45:51;4.17;;;3.63;;
17614;SDS011;8926;49.720;6.576;2022-10-31T12:59:49;4.40;;;4.00;;
17614;SDS011;8926;49.720;6.576;2022-10-31T13:02:20;4.53;;;3.70;;
17614;SDS011;8926;49.720;6.576;2022-10-31T13:07:36;10.40;;;6.63;;
17614;SDS011;8926;49.720;6.576;2022-10-31T13:12:37;5.80;;;5.17;;
17614;SDS011;8926;49.720;6.576;2022-10-31T13:15:05;4.37;;;3.97;;
17614;SDS011;8926;49.720;6.576;2022-10-31T13:17:48;5.97;;;5.10;;
17614;SDS011;8926;49.720;6.576;2022-10-31T13:20:28;10.37;;;7.07;;
17614;SDS011;8926;49.720;6.576;2022-10-31T13:23:42;8.13;;;6.83;;
17614;SDS011;8926;49.720;6.576;2022-10-31T13:25:50;6.27;;;4.70;;
17614;SDS011;8926;49.720;6.576;2022-10-31T13:31:08;4.17;;;3.83;;
17614;SDS011;8926;49.720;6.576;2022-10-31T13:33:41;3.80;;;3.47;;
17614;SDS011;8926;49.720;6.576;2022-10-31T13:38:59;3.30;;;3.00;;
17614;SDS011;8926;49.720;6.576;2022-10-31T13:44:17;3.00;;;2.80;;
17614;SDS011;8926;49.720;6.576;2022-10-31T13:46:51;2.20;;;2.00;;
17614;SDS011;8926;49.720;6.576;2022-10-31T13:49:23;2.97;;;2.77;;
17614;SDS011;8926;49.720;6.576;2022-10-31T13:52:14;3.27;;;3.07;;
17614;SDS011;8926;49.720;6.576;2022-10-31T13:54:45;2.53;;;2.33;;
17614;SDS011;8926;49.720;6.576;2022-10-31T14:00:00;2.50;;;2.30;;
17614;SDS011;8926;49.720;6.576;2022-10-31T14:02:35;3.07;;;2.80;;
17614;SDS011;8926;49.720;6.576;2022-10-31T14:07:29;2.07;;;1.97;;
17614;SDS011;8926;49.720;6.576;2022-10-31T14:12:42;2.03;;;1.93;;
17614;SDS011;8926;49.720;6.576;2022-10-31T14:15:20;2.20;;;2.10;;
17614;SDS011;8926;49.720;6.576;2022-10-31T14:17:52;2.23;;;2.03;;
17614;SDS011;8926;49.720;6.576;2022-10-31T14:20:40;2.13;;;2.03;;
17614;SDS011;8926;49.720;6.576;2022-10-31T14:28:38;1.77;;;1.67;;
17614;SDS011;8926;49.720;6.576;2022-10-31T14:31:21;2.07;;;1.90;;
17614;SDS011;8926;49.720;6.576;2022-10-31T14:36:42;2.03;;;1.93;;
17614;SDS011;8926;49.720;6.576;2022-10-31T14:42:15;1.97;;;1.87;;
17614;SDS011;8926;49.720;6.576;2022-10-31T14:50:25;2.20;;;2.10;;
17614;SDS011;8926;49.720;6.576;2022-10-31T14:53:03;2.40;;;2.23;;
17614;SDS011;8926;49.720;6.576;2022-10-31T14:55:30;2.43;;;2.30;;
17614;SDS011;8926;49.720;6.576;2022-10-31T14:57:58;1.97;;;1.87;;
17614;SDS011;8926;49.720;6.576;2022-10-31T15:00:26;2.00;;;1.90;;
17614;SDS011;8926;49.720;6.576;2022-10-31T15:05:40;2.00;;;1.90;;
17614;SDS011;8926;49.720;6.576;2022-10-31T15:08:13;2.00;;;1.80;;
17614;SDS011;8926;49.720;6.576;2022-10-31T15:10:51;2.10;;;2.00;;
17614;SDS011;8926;49.720;6.576;2022-10-31T15:13:18;2.23;;;2.03;;
17614;SDS011;8926;49.720;6.576;2022-10-31T15:15:46;1.93;;;1.83;;
17614;SDS011;8926;49.720;6.576;2022-10-31T15:18:18;2.00;;;1.90;;
17614;SDS011;8926;49.720;6.576;2022-10-31T15:20:46;2.20;;;2.00;;
17614;SDS011;8926;49.720;6.576;2022-10-31T15:23:15;2.10;;;2.00;;
17614;SDS011;8926;49.720;6.576;2022-10-31T15:25:45;1.97;;;1.87;;
17614;SDS011;8926;49.720;6.576;2022-10-31T15:28:14;1.80;;;1.70;;
17614;SDS011;8926;49.720;6.576;2022-10-31T15:30:53;1.80;;;1.70;;
17614;SDS011;8926;49.720;6.576;2022-10-31T15:33:21;2.03;;;1.83;;
17614;SDS011;8926;49.720;6.576;2022-10-31T15:35:54;1.50;;;1.40;;
17614;SDS011;8926;49.720;6.576;2022-10-31T15:38:27;2.07;;;1.70;;
17614;SDS011;8926;49.720;6.576;2022-10-31T15:40:55;1.90;;;1.80;;
17614;SDS011;8926;49.720;6.576;2022-10-31T15:43:20;1.90;;;1.80;;
17614;SDS011;8926;49.720;6.576;2022-10-31T15:45:46;2.57;;;2.47;;
17614;SDS011;8926;49.720;6.576;2022-10-31T15:48:15;4.30;;;3.13;;
17614;SDS011;8926;49.720;6.576;2022-10-31T15:50:53;5.77;;;2.97;;
17614;SDS011;8926;49.720;6.576;2022-10-31T15:53:24;2.23;;;2.13;;
17614;SDS011;8926;49.720;6.576;2022-10-31T15:56:12;2.03;;;1.87;;
17614;SDS011;8926;49.720;6.576;2022-10-31T15:58:45;1.67;;;1.57;;
17614;SDS011;8926;49.720;6.576;2022-10-31T16:01:23;1.80;;;1.70;;
17614;SDS011;8926;49.720;6.576;2022-10-31T16:04:00;1.30;;;1.30;;
17614;SDS011;8926;49.720;6.576;2022-10-31T16:06:31;2.00;;;1.90;;
17614;SDS011;8926;49.720;6.576;2022-10-31T16:08:59;2.33;;;1.87;;
17614;SDS011;8926;49.720;6.576;2022-10-31T16:11:27;2.47;;;2.27;;
17614;SDS011;8926;49.720;6.576;2022-10-31T16:14:14;2.80;;;2.50;;
17614;SDS011;8926;49.720;6.576;2022-10-31T16:16:42;2.33;;;2.23;;
17614;SDS011;8926;49.720;6.576;2022-10-31T16:19:54;2.40;;;2.20;;
17614;SDS011;8926;49.720;6.576;2022-10-31T16:22:14;2.20;;;2.10;;
17614;SDS011;8926;49.720;6.576;2022-10-31T16:24:46;1.90;;;1.80;;
17614;SDS011;8926;49.720;6.576;2022-10-31T16:27:23;2.17;;;1.93;;
17614;SDS011;8926;49.720;6.576;2022-10-31T16:29:57;2.40;;;2.20;;
17614;SDS011;8926;49.720;6.576;2022-10-31T16:32:30;1.80;;;1.67;;
17614;SDS011;8926;49.720;6.576;2022-10-31T16:34:59;2.00;;;1.90;;
17614;SDS011;8926;49.720;6.576;2022-10-31T16:37:26;1.97;;;1.87;;
17614;SDS011;8926;49.720;6.576;2022-10-31T16:39:51;2.13;;;1.97;;
17614;SDS011;8926;49.720;6.576;2022-10-31T16:42:16;3.00;;;2.30;;
17614;SDS011;8926;49.720;6.576;2022-10-31T16:44:43;2.37;;;2.17;;
17614;SDS011;8926;49.720;6.576;2022-10-31T16:47:12;2.30;;;2.20;;
17614;SDS011;8926;49.720;6.576;2022-10-31T16:49:39;3.07;;;2.20;;
17614;SDS011;8926;49.720;6.576;2022-10-31T16:52:04;1.87;;;1.77;;
17614;SDS011;8926;49.720;6.576;2022-10-31T16:54:30;2.50;;;2.30;;
17614;SDS011;8926;49.720;6.576;2022-10-31T16:56:56;2.50;;;2.30;;
17614;SDS011;8926;49.720;6.576;2022-10-31T16:59:23;2.20;;;2.10;;
17614;SDS011;8926;49.720;6.576;2022-10-31T17:01:48;2.73;;;2.50;;
17614;SDS011;8926;49.720;6.576;2022-10-31T17:04:14;2.47;;;2.23;;
17614;SDS011;8926;49.720;6.576;2022-10-31T17:06:40;2.40;;;2.20;;
17614;SDS011;8926;49.720;6.576;2022-10-31T17:09:06;2.77;;;2.40;;
17614;SDS011;8926;49.720;6.576;2022-10-31T17:11:32;2.23;;;2.07;;
17614;SDS011;8926;49.720;6.576;2022-10-31T17:13:58;2.67;;;2.47;;
17614;SDS011;8926;49.720;6.576;2022-10-31T17:16:23;2.03;;;1.80;;
17614;SDS011;8926;49.720;6.576;2022-10-31T17:18:49;2.50;;;2.30;;
17614;SDS011;8926;49.720;6.576;2022-10-31T17:21:16;2.43;;;2.23;;
17614;SDS011;8926;49.720;6.576;2022-10-31T17:23:43;1.97;;;1.87;;
17614;SDS011;8926;49.720;6.576;2022-10-31T17:26:09;2.27;;;1.93;;